Time;durP1;ratioP1;P1;durP2;ratioP2;P2;SDS_P1;SDS_P2;PMS_P1;PMS_P2;Temp;Humidity;BMP_temperature;BMP_pressure;BME280_temperature;BME280_humidity;BME280_pressure;Samples;Min_cycle;Max_cycle;Signal;HPM_P1;HPM_P2
2022/03/19 00:01:30;;;;;;;17.10;6.70;;;4.80;99.90;;;;;;4952691;28;21160;-49
2022/03/19 00:03:57;;;;;;;16.87;6.43;;;4.70;92.30;;;;;;4952500;28;20486;-50
2022/03/19 00:06:24;;;;;;;17.43;6.83;;;4.70;73.40;;;;;;4955606;28;20964;-50
2022/03/19 00:08:53;;;;;;;22.73;6.63;;;4.70;25.70;;;;;;4954638;28;20513;-49
2022/03/19 00:11:22;;;;;;;16.97;7.87;;;4.60;26.30;;;;;;4949712;29;20549;-49
2022/03/19 00:13:48;;;;;;;18.50;7.60;;;4.60;26.50;;;;;;4955061;28;20505;-49
2022/03/19 00:16:15;;;;;;;18.23;6.87;;;4.60;26.00;;;;;;4953701;28;20550;-49
2022/03/19 00:18:41;;;;;;;16.67;6.77;;;4.50;26.60;;;;;;4953007;28;20465;-50
2022/03/19 00:21:08;;;;;;;18.40;6.90;;;4.50;27.40;;;;;;4950315;28;20481;-50
2022/03/19 00:23:35;;;;;;;21.93;8.00;;;4.40;28.40;;;;;;4953130;28;20492;-49
2022/03/19 00:26:03;;;;;;;15.50;6.83;;;4.40;26.40;;;;;;4952649;28;20517;-51
2022/03/19 00:28:30;;;;;;;18.67;7.00;;;4.40;27.50;;;;;;4951928;28;20502;-50
2022/03/19 00:30:56;;;;;;;15.93;7.43;;;4.40;28.70;;;;;;4952452;28;20486;-50
2022/03/19 00:33:23;;;;;;;13.37;6.13;;;4.30;28.80;;;;;;4952736;28;20466;-49
2022/03/19 00:35:49;;;;;;;11.03;6.73;;;4.30;26.70;;;;;;4952889;28;20484;-49
2022/03/19 00:38:17;;;;;;;16.63;6.60;;;4.30;26.00;;;;;;4952440;28;20612;-50
2022/03/19 00:40:45;;;;;;;19.70;7.00;;;4.20;24.80;;;;;;4945512;28;20481;-50
2022/03/19 00:43:14;;;;;;;12.83;6.03;;;4.10;24.10;;;;;;4952684;28;20483;-50
2022/03/19 00:45:40;;;;;;;17.23;7.60;;;4.10;23.00;;;;;;4950528;28;20470;-50
2022/03/19 00:48:07;;;;;;;17.97;7.40;;;4.10;77.50;;;;;;4950032;28;20478;-49
2022/03/19 00:50:34;;;;;;;19.50;8.60;;;4.10;84.00;;;;;;4951367;28;20911;-50
2022/03/19 00:53:01;;;;;;;16.50;7.20;;;4.10;28.10;;;;;;4952423;28;20470;-49
2022/03/19 00:55:28;;;;;;;22.43;8.47;;;4.00;24.10;;;;;;4953947;28;20463;-50
2022/03/19 00:57:55;;;;;;;16.67;6.77;;;4.00;22.50;;;;;;4949985;28;20475;-49
2022/03/19 01:00:25;;;;;;;14.03;7.00;;;3.90;79.10;;;;;;4950024;28;20482;-50
2022/03/19 01:02:52;;;;;;;13.90;6.53;;;3.90;25.10;;;;;;4953006;28;20463;-50
2022/03/19 01:05:19;;;;;;;15.10;7.00;;;3.90;27.20;;;;;;4950276;28;20467;-50
2022/03/19 01:07:47;;;;;;;17.80;7.70;;;3.80;27.00;;;;;;4953217;28;20867;-50
2022/03/19 01:10:16;;;;;;;12.00;7.10;;;3.80;29.40;;;;;;4953161;28;20546;-50
2022/03/19 01:12:43;;;;;;;18.83;8.10;;;3.80;27.90;;;;;;4953625;29;20536;-50
2022/03/19 01:15:11;;;;;;;21.83;7.77;;;3.70;23.80;;;;;;4951828;28;20490;-49
2022/03/19 01:17:39;;;;;;;17.50;7.07;;;3.60;27.60;;;;;;4952691;28;20513;-50
2022/03/19 01:20:07;;;;;;;12.20;5.90;;;3.60;23.80;;;;;;4953842;28;20465;-50
2022/03/19 01:22:34;;;;;;;13.30;6.73;;;3.60;99.90;;;;;;4957293;28;20515;-50
2022/03/19 01:25:04;;;;;;;14.33;7.40;;;3.50;99.90;;;;;;4952700;28;20486;-51
2022/03/19 01:27:31;;;;;;;18.70;7.33;;;3.40;82.10;;;;;;4951490;28;20463;-50
2022/03/19 01:29:57;;;;;;;21.80;8.17;;;3.40;99.90;;;;;;4952507;28;21012;-50
2022/03/19 01:32:24;;;;;;;19.10;8.03;;;3.40;99.90;;;;;;4951286;28;20462;-50
2022/03/19 01:34:53;;;;;;;17.57;7.23;;;3.40;99.90;;;;;;4953454;29;20455;-49
2022/03/19 01:37:20;;;;;;;17.03;6.93;;;3.40;99.90;;;;;;4953190;28;20843;-50
2022/03/19 01:39:47;;;;;;;15.07;6.77;;;3.30;99.90;;;;;;4950006;28;20473;-50
2022/03/19 01:42:22;;;;;;;16.40;7.23;;;3.30;99.90;;;;;;4953403;28;20478;-50
2022/03/19 01:44:48;;;;;;;17.53;7.50;;;3.30;99.90;;;;;;4951187;28;20487;-50
2022/03/19 01:47:15;;;;;;;18.87;6.13;;;3.20;20.20;;;;;;4953332;28;20899;-51
2022/03/19 01:49:42;;;;;;;18.97;7.03;;;3.10;23.90;;;;;;4949871;28;20952;-49
2022/03/19 01:52:10;;;;;;;16.70;7.30;;;3.00;27.80;;;;;;4951721;29;20872;-50
2022/03/19 01:54:38;;;;;;;15.90;7.10;;;3.00;23.00;;;;;;4952902;28;20462;-49
2022/03/19 01:57:06;;;;;;;16.70;7.57;;;2.90;22.50;;;;;;4956629;28;20446;-50
2022/03/19 01:59:35;;;;;;;13.87;5.93;;;2.80;20.30;;;;;;4952880;28;21007;-49
2022/03/19 02:02:03;;;;;;;16.60;7.20;;;2.80;99.90;;;;;;4950011;28;20482;-49
2022/03/19 02:04:31;;;;;;;11.40;6.80;;;2.70;99.90;;;;;;4952168;28;20490;-50
2022/03/19 02:06:57;;;;;;;13.60;7.53;;;2.70;99.90;;;;;;4953369;28;20843;-49
2022/03/19 02:09:25;;;;;;;14.70;6.50;;;2.60;99.90;;;;;;4954504;28;20532;-49
2022/03/19 02:11:52;;;;;;;20.40;8.23;;;2.60;99.90;;;;;;4951632;28;20996;-50
2022/03/19 02:14:19;;;;;;;22.33;7.30;;;2.60;99.90;;;;;;4950579;28;20475;-50
2022/03/19 02:16:47;;;;;;;20.40;7.87;;;2.60;99.90;;;;;;4949855;28;20529;-49
2022/03/19 02:19:14;;;;;;;20.47;6.83;;;2.50;99.90;;;;;;4953015;28;20477;-51
2022/03/19 02:21:42;;;;;;;19.83;7.70;;;2.50;99.90;;;;;;4951258;28;20517;-49
2022/03/19 02:29:26;;;;;;;10.83;6.80;;;2.40;99.90;;;;;;4928861;29;20857;-49
2022/03/19 02:31:55;;;;;;;22.23;7.77;;;2.40;99.90;;;;;;4931897;29;20546;-49
2022/03/19 02:34:22;;;;;;;14.70;7.20;;;2.30;99.90;;;;;;4941611;29;20462;-49
2022/03/19 02:36:49;;;;;;;20.40;7.30;;;2.30;99.90;;;;;;4930118;29;20518;-51
2022/03/19 02:39:20;;;;;;;11.13;5.93;;;2.30;99.90;;;;;;4922699;29;20478;-49
2022/03/19 02:41:50;;;;;;;11.97;6.80;;;2.30;99.90;;;;;;4930290;29;20487;-52
2022/03/19 02:44:18;;;;;;;13.13;6.30;;;2.20;99.90;;;;;;4933955;29;20521;-51
2022/03/19 02:46:46;;;;;;;12.50;6.67;;;2.30;99.90;;;;;;4928524;29;20490;-51
2022/03/19 02:49:13;;;;;;;18.60;6.87;;;2.30;99.90;;;;;;4932069;28;20972;-51
2022/03/19 02:51:42;;;;;;;13.73;6.20;;;2.20;99.90;;;;;;4929646;29;20542;-51
2022/03/19 02:54:10;;;;;;;17.03;6.80;;;2.20;99.90;;;;;;4925295;28;20528;-52
2022/03/19 02:56:41;;;;;;;14.80;5.93;;;2.30;99.90;;;;;;4922805;29;20467;-51
2022/03/19 02:59:08;;;;;;;13.13;5.53;;;2.20;99.90;;;;;;4915496;29;20484;-51
2022/03/19 03:01:37;;;;;;;9.97;5.03;;;2.20;99.90;;;;;;4921057;29;20511;-51
2022/03/19 03:04:04;;;;;;;14.87;5.97;;;2.20;99.90;;;;;;4931390;29;20557;-51
2022/03/19 03:06:35;;;;;;;10.93;5.60;;;2.20;99.90;;;;;;4926805;29;20467;-52
2022/03/19 03:09:02;;;;;;;10.83;5.57;;;2.20;99.90;;;;;;4934907;28;20481;-51
2022/03/19 03:11:28;;;;;;;13.43;6.30;;;2.10;99.90;;;;;;4931385;29;20507;-51
2022/03/19 03:13:56;;;;;;;15.10;6.33;;;2.10;99.90;;;;;;4940229;29;20451;-51
2022/03/19 03:16:23;;;;;;;11.37;5.90;;;2.10;99.90;;;;;;4932697;29;20847;-51
2022/03/19 03:18:50;;;;;;;14.10;6.40;;;2.00;99.90;;;;;;4926945;29;20490;-52
2022/03/19 03:21:17;;;;;;;14.00;6.50;;;2.00;99.90;;;;;;4926508;29;20478;-50
2022/03/19 03:23:43;;;;;;;14.17;6.47;;;2.00;99.90;;;;;;4933677;29;21043;-49
2022/03/19 03:26:10;;;;;;;11.93;5.60;;;2.00;99.90;;;;;;4927567;29;20476;-50
2022/03/19 03:28:37;;;;;;;15.40;6.90;;;1.90;99.90;;;;;;4935970;29;20498;-49
2022/03/19 03:31:05;;;;;;;13.47;6.10;;;1.80;99.90;;;;;;4934612;28;20483;-49
2022/03/19 03:33:32;;;;;;;9.47;6.13;;;1.80;99.90;;;;;;4929058;29;20812;-48
2022/03/19 03:35:58;;;;;;;10.60;5.70;;;1.80;99.90;;;;;;4930166;29;20531;-48
2022/03/19 03:38:25;;;;;;;13.17;6.10;;;1.80;99.90;;;;;;4936460;29;20492;-51
2022/03/19 03:40:52;;;;;;;10.43;6.40;;;1.80;99.90;;;;;;4940761;29;20524;-51
2022/03/19 03:43:19;;;;;;;13.97;6.43;;;1.70;99.90;;;;;;4920799;29;21012;-52
2022/03/19 03:45:46;;;;;;;13.40;6.10;;;1.70;99.90;;;;;;4928748;29;20488;-52
2022/03/19 03:48:13;;;;;;;13.70;5.70;;;1.70;99.90;;;;;;4932930;29;20482;-51
2022/03/19 03:50:41;;;;;;;17.57;6.03;;;1.70;99.90;;;;;;4939417;28;20522;-51
2022/03/19 03:53:08;;;;;;;12.03;6.40;;;1.70;99.90;;;;;;4929000;29;20524;-52
2022/03/19 03:55:37;;;;;;;10.13;6.03;;;1.70;99.90;;;;;;4925224;29;20462;-52
2022/03/19 03:58:04;;;;;;;13.37;5.83;;;1.70;99.90;;;;;;4933733;29;21031;-52
2022/03/19 04:00:32;;;;;;;16.40;5.90;;;1.60;99.90;;;;;;4937707;29;20472;-51
2022/03/19 04:02:59;;;;;;;12.80;5.53;;;1.60;99.90;;;;;;4929503;29;20463;-51
2022/03/19 04:05:27;;;;;;;16.90;6.23;;;1.60;99.90;;;;;;4933977;29;20495;-50
2022/03/19 04:07:54;;;;;;;12.37;5.33;;;1.60;99.90;;;;;;4934029;29;20542;-51
2022/03/19 04:10:21;;;;;;;17.93;6.10;;;1.60;99.90;;;;;;4923205;29;20938;-49
2022/03/19 04:12:48;;;;;;;11.93;6.00;;;1.50;99.90;;;;;;4928652;29;20885;-52
2022/03/19 04:15:15;;;;;;;15.07;5.53;;;1.50;99.90;;;;;;4928816;29;20463;-51
2022/03/19 04:17:41;;;;;;;13.10;6.30;;;1.50;99.90;;;;;;4924480;29;20557;-51
2022/03/19 04:20:09;;;;;;;12.33;5.53;;;1.50;99.90;;;;;;4935669;29;20526;-51
2022/03/19 04:22:39;;;;;;;11.37;6.40;;;1.50;99.90;;;;;;4930284;29;20535;-51
2022/03/19 04:25:11;;;;;;;12.53;6.30;;;1.50;99.90;;;;;;4927423;29;20494;-49
2022/03/19 04:27:38;;;;;;;14.50;6.17;;;1.50;99.90;;;;;;4923389;29;20494;-51
2022/03/19 04:30:06;;;;;;;10.83;5.67;;;1.50;99.90;;;;;;4939448;28;20494;-50
2022/03/19 04:32:32;;;;;;;12.13;5.67;;;1.50;99.90;;;;;;4925410;29;20511;-50
2022/03/19 04:36:29;;;;;;;15.13;6.63;;;1.40;99.90;;;;;;4933930;29;20463;-49
2022/03/19 04:37:47;;;;;;;13.23;5.53;;;1.40;99.90;;;;;;4930430;29;20570;-49
2022/03/19 04:40:13;;;;;;;16.07;7.20;;;1.40;99.90;;;;;;4944249;29;20579;-52
2022/03/19 04:42:40;;;;;;;11.20;5.87;;;1.40;99.90;;;;;;4922553;29;20968;-52
2022/03/19 04:45:07;;;;;;;13.50;5.70;;;1.40;99.90;;;;;;4931720;29;20479;-49
2022/03/19 04:47:34;;;;;;;14.30;5.53;;;1.40;99.90;;;;;;4929695;29;20515;-51
2022/03/19 04:50:04;;;;;;;10.50;5.37;;;1.30;99.90;;;;;;4940500;28;20467;-50
2022/03/19 04:52:31;;;;;;;12.10;6.43;;;1.30;99.90;;;;;;4929048;29;20459;-51
2022/03/19 04:55:00;;;;;;;14.03;6.07;;;1.30;99.90;;;;;;4929643;29;20832;-50
2022/03/19 04:57:27;;;;;;;11.90;5.70;;;1.20;99.90;;;;;;4927764;29;20489;-50
2022/03/19 04:59:54;;;;;;;10.67;5.40;;;1.30;99.90;;;;;;4936430;29;20466;-51
2022/03/19 05:02:24;;;;;;;8.77;4.30;;;1.30;99.90;;;;;;4929329;28;20459;-49
2022/03/19 05:04:51;;;;;;;14.37;5.80;;;1.30;99.90;;;;;;4933726;29;20486;-49
2022/03/19 05:07:19;;;;;;;11.53;5.20;;;1.30;99.90;;;;;;4928284;29;20917;-49
2022/03/19 05:12:32;;;;;;;13.20;5.20;;;1.20;99.90;;;;;;4931065;29;20461;-52
2022/03/19 05:14:58;;;;;;;11.90;5.90;;;1.20;99.90;;;;;;4927232;29;20462;-50
2022/03/19 05:17:25;;;;;;;10.30;5.60;;;1.20;99.90;;;;;;4930826;29;20578;-51
2022/03/19 05:19:52;;;;;;;13.50;5.17;;;1.20;99.90;;;;;;4930376;29;20942;-51
2022/03/19 05:22:19;;;;;;;13.53;5.30;;;1.20;99.90;;;;;;4936441;29;20473;-51
2022/03/19 05:24:46;;;;;;;14.53;4.93;;;1.20;99.90;;;;;;4924764;29;20898;-52
2022/03/19 05:27:13;;;;;;;10.10;5.30;;;1.20;99.90;;;;;;4929550;29;20512;-52
2022/03/19 05:29:41;;;;;;;12.83;5.80;;;1.30;99.90;;;;;;4923330;29;20519;-51
2022/03/19 05:32:10;;;;;;;14.40;5.67;;;1.30;99.90;;;;;;4927116;29;20558;-52
2022/03/19 05:34:36;;;;;;;11.47;5.23;;;1.30;99.90;;;;;;4926361;29;20471;-52
2022/03/19 05:37:05;;;;;;;8.23;5.13;;;1.30;99.90;;;;;;4934925;29;20493;-51
2022/03/19 05:39:33;;;;;;;13.20;5.13;;;1.40;99.90;;;;;;4924256;29;20471;-51
2022/03/19 05:42:00;;;;;;;16.20;6.17;;;1.40;99.90;;;;;;4928839;29;20468;-52
2022/03/19 05:44:26;;;;;;;10.10;4.97;;;1.40;99.90;;;;;;4927014;29;20500;-51
2022/03/19 05:46:57;;;;;;;13.37;6.20;;;1.40;99.90;;;;;;4930424;29;20473;-51
2022/03/19 05:49:24;;;;;;;9.93;4.70;;;1.40;99.90;;;;;;4930453;29;20477;-51
2022/03/19 05:51:50;;;;;;;13.73;5.23;;;1.40;99.90;;;;;;4930153;29;20853;-51
2022/03/19 05:54:17;;;;;;;12.47;5.63;;;1.40;99.90;;;;;;4930454;29;20518;-51
2022/03/19 05:56:44;;;;;;;9.13;4.67;;;1.60;99.90;;;;;;4919817;29;20558;-51
2022/03/19 05:59:10;;;;;;;11.53;4.87;;;1.90;99.90;;;;;;4931134;29;20534;-52
2022/03/19 06:01:37;;;;;;;12.40;5.63;;;2.00;99.90;;;;;;4932290;28;20957;-52
2022/03/19 06:04:05;;;;;;;14.83;6.17;;;2.20;99.90;;;;;;4931585;28;20467;-52
2022/03/19 06:06:32;;;;;;;12.97;5.73;;;2.30;32.50;;;;;;4929600;29;20977;-53
2022/03/19 06:08:59;;;;;;;16.43;6.63;;;2.50;40.40;;;;;;4935562;29;20482;-53
2022/03/19 06:11:26;;;;;;;10.30;5.57;;;2.60;70.20;;;;;;4931385;28;20523;-53
2022/03/19 06:13:52;;;;;;;11.80;5.73;;;2.70;71.60;;;;;;4925242;29;20870;-53
2022/03/19 06:16:19;;;;;;;10.87;5.30;;;2.70;77.80;;;;;;4925735;29;20463;-52
2022/03/19 06:18:50;;;;;;;8.23;4.30;;;2.70;77.60;;;;;;4930903;29;20578;-52
2022/03/19 06:21:18;;;;;;;12.10;4.80;;;2.50;73.30;;;;;;4927106;29;20562;-52
2022/03/19 06:23:45;;;;;;;23.37;10.93;;;2.60;53.00;;;;;;4926019;29;20478;-52
2022/03/19 06:26:11;;;;;;;18.20;6.27;;;2.60;50.90;;;;;;4929089;29;20487;-52
2022/03/19 06:28:38;;;;;;;16.50;6.43;;;2.80;50.80;;;;;;4931044;29;20491;-52
2022/03/19 06:31:05;;;;;;;10.70;4.70;;;3.10;60.40;;;;;;4936379;28;20475;-53
2022/03/19 06:33:31;;;;;;;10.50;5.43;;;3.30;86.30;;;;;;4927226;29;20519;-50
2022/03/19 06:38:44;;;;;;;10.83;5.10;;;3.30;99.90;;;;;;4928404;29;20486;-52
2022/03/19 06:41:11;;;;;;;16.37;5.40;;;3.40;99.30;;;;;;4924141;29;20475;-52
2022/03/19 06:43:38;;;;;;;16.00;4.80;;;3.50;97.50;;;;;;4929085;29;20472;-52
2022/03/19 06:46:05;;;;;;;12.03;6.63;;;3.60;99.90;;;;;;4937656;28;20532;-52
2022/03/19 06:48:31;;;;;;;12.97;7.87;;;3.70;99.90;;;;;;4931122;29;20495;-51
2022/03/19 06:50:58;;;;;;;23.73;14.80;;;3.80;99.90;;;;;;4931442;29;20527;-51
2022/03/19 06:53:25;;;;;;;28.07;16.07;;;3.80;99.90;;;;;;4927266;29;20467;-51
2022/03/19 06:55:55;;;;;;;12.07;7.00;;;3.80;99.90;;;;;;4930968;29;20460;-51
2022/03/19 06:58:21;;;;;;;21.30;8.87;;;3.80;99.90;;;;;;4932460;29;20498;-52
2022/03/19 07:00:48;;;;;;;10.83;6.27;;;4.00;99.90;;;;;;4937125;29;21092;-51
2022/03/19 07:03:15;;;;;;;7.97;4.80;;;4.10;99.90;;;;;;4930526;28;20525;-52
2022/03/19 07:05:42;;;;;;;9.23;4.60;;;4.20;99.90;;;;;;4928414;29;20483;-53
2022/03/19 07:08:08;;;;;;;9.07;3.73;;;4.30;99.90;;;;;;4935727;28;21008;-50
2022/03/19 07:10:36;;;;;;;19.10;5.80;;;4.30;99.90;;;;;;4931809;29;22502;-49
2022/03/19 07:13:04;;;;;;;9.80;4.70;;;4.40;99.90;;;;;;4937246;29;20474;-50
2022/03/19 07:15:31;;;;;;;7.30;3.93;;;4.50;99.90;;;;;;4922562;29;20471;-49
2022/03/19 07:18:00;;;;;;;11.47;4.37;;;4.60;99.90;;;;;;4924397;28;20487;-49
2022/03/19 07:20:27;;;;;;;7.83;3.40;;;4.70;99.90;;;;;;4935901;29;20467;-49
2022/03/19 07:22:58;;;;;;;9.10;3.50;;;5.00;99.90;;;;;;4932526;29;20462;-49
2022/03/19 07:25:26;;;;;;;10.20;3.27;;;5.20;99.90;;;;;;4929638;29;20487;-49
2022/03/19 07:27:54;;;;;;;7.10;3.90;;;5.40;99.90;;;;;;4936131;29;20495;-50
2022/03/19 07:30:23;;;;;;;11.33;3.60;;;5.70;99.90;;;;;;4928678;29;20543;-48
2022/03/19 07:32:50;;;;;;;9.90;4.00;;;5.70;99.90;;;;;;4930490;29;20832;-49
2022/03/19 07:35:17;;;;;;;11.40;5.83;;;6.10;99.90;;;;;;4934811;29;20490;-48
2022/03/19 07:37:46;;;;;;;8.70;4.23;;;6.50;99.90;;;;;;4926212;29;20574;-51
2022/03/19 07:40:14;;;;;;;15.80;4.63;;;6.70;85.10;;;;;;4934202;29;20474;-51
2022/03/19 07:42:40;;;;;;;7.80;3.63;;;6.50;85.00;;;;;;4929818;29;20464;-53
2022/03/19 07:45:09;;;;;;;6.17;3.20;;;6.90;22.00;;;;;;4927898;29;20490;-51
2022/03/19 07:47:37;;;;;;;9.77;3.00;;;7.10;25.40;;;;;;4941031;28;20529;-59
2022/03/19 07:50:05;;;;;;;7.43;3.20;;;7.50;31.90;;;;;;4925977;29;20471;-51
2022/03/19 07:52:33;;;;;;;6.33;3.47;;;7.30;38.00;;;;;;4925299;29;20466;-51
2022/03/19 07:55:00;;;;;;;9.20;3.10;;;7.20;39.20;;;;;;4937951;29;20836;-51
2022/03/19 07:57:27;;;;;;;11.17;4.00;;;7.60;43.80;;;;;;4922664;29;20494;-51
2022/03/19 07:59:54;;;;;;;14.80;5.80;;;8.10;56.30;;;;;;4928559;29;20463;-52
2022/03/19 08:02:22;;;;;;;14.03;5.20;;;8.20;67.90;;;;;;4929076;29;20811;-52
2022/03/19 08:04:50;;;;;;;18.40;8.17;;;8.30;69.30;;;;;;4932874;29;20542;-52
2022/03/19 08:07:19;;;;;;;10.97;4.30;;;8.20;65.70;;;;;;4924487;29;20575;-51
2022/03/19 08:09:47;;;;;;;11.43;4.00;;;8.60;70.10;;;;;;4927109;29;20465;-51
2022/03/19 08:12:14;;;;;;;7.33;2.70;;;8.70;76.70;;;;;;4930422;29;20471;-51
2022/03/19 08:14:42;;;;;;;11.80;3.20;;;8.60;83.90;;;;;;4923617;29;20458;-51
2022/03/19 08:17:10;;;;;;;6.93;2.93;;;8.70;91.80;;;;;;4926651;29;20560;-51
2022/03/19 08:19:37;;;;;;;9.13;2.83;;;9.10;87.10;;;;;;4944329;29;20471;-51
2022/03/19 08:22:05;;;;;;;4.50;2.57;;;8.80;89.40;;;;;;4931209;29;20458;-51
2022/03/19 08:24:33;;;;;;;7.90;2.40;;;8.80;89.20;;;;;;4936971;29;20462;-49
2022/03/19 08:26:59;;;;;;;9.13;3.57;;;8.90;90.50;;;;;;4928535;29;20491;-51
2022/03/19 08:29:26;;;;;;;11.10;2.87;;;8.90;86.80;;;;;;4955119;23;20526;-54
2022/03/19 08:31:52;;;;;;;14.50;3.63;;;9.00;94.90;;;;;;4950502;28;20462;-53
2022/03/19 08:34:19;;;;;;;7.13;2.20;;;9.10;94.40;;;;;;4953311;28;20553;-54
2022/03/19 08:36:46;;;;;;;7.50;4.07;;;9.70;99.40;;;;;;4958508;28;20521;-54
2022/03/19 08:41:55;;;;;;;6.77;2.57;;;10.30;99.90;;;;;;4892891;29;20456;-54
2022/03/19 08:44:21;;;;;;;5.90;2.60;;;10.60;99.90;;;;;;4934345;29;20552;-53
2022/03/19 08:46:48;;;;;;;6.77;2.77;;;10.60;99.90;;;;;;4924903;29;20492;-53
2022/03/19 08:49:15;;;;;;;8.00;2.70;;;10.60;99.90;;;;;;4933717;29;20483;-53
2022/03/19 08:51:41;;;;;;;7.10;2.83;;;11.00;99.90;;;;;;4935773;29;20984;-54
2022/03/19 08:54:09;;;;;;;5.40;2.80;;;11.00;99.90;;;;;;4935548;29;20518;-54
2022/03/19 08:56:37;;;;;;;9.17;2.50;;;11.10;99.90;;;;;;4927070;29;20464;-54
2022/03/19 08:59:05;;;;;;;7.47;2.50;;;10.80;99.90;;;;;;4929824;28;20487;-54
2022/03/19 09:01:31;;;;;;;5.50;2.43;;;11.60;99.90;;;;;;4934767;29;20490;-54
2022/03/19 09:03:58;;;;;;;9.83;2.60;;;11.80;99.90;;;;;;4930453;29;20503;-54
2022/03/19 09:06:25;;;;;;;8.73;2.93;;;11.90;99.90;;;;;;4936988;29;21017;-54
2022/03/19 09:08:52;;;;;;;9.73;2.73;;;12.40;99.90;;;;;;4933949;29;20498;-54
2022/03/19 09:11:20;;;;;;;6.90;2.63;;;12.40;99.90;;;;;;4935190;29;20463;-54
2022/03/19 09:13:49;;;;;;;5.70;2.37;;;12.80;99.90;;;;;;4935599;28;20462;-54
2022/03/19 09:16:17;;;;;;;7.43;3.03;;;13.00;99.90;;;;;;4931207;29;20531;-54
2022/03/19 09:18:43;;;;;;;3.47;2.13;;;13.10;99.90;;;;;;4936831;29;20479;-53
2022/03/19 09:21:11;;;;;;;5.80;2.70;;;12.80;99.90;;;;;;4938134;29;20455;-54
2022/03/19 09:23:38;;;;;;;6.83;2.40;;;13.60;99.90;;;;;;4934177;29;20506;-54
2022/03/19 09:26:05;;;;;;;4.40;2.23;;;13.60;99.90;;;;;;4933781;28;20487;-54
2022/03/19 09:28:31;;;;;;;11.97;2.57;;;14.00;99.90;;;;;;4939074;29;21095;-55
2022/03/19 09:30:59;;;;;;;6.57;2.47;;;14.00;99.90;;;;;;4928267;28;20530;-55
2022/03/19 09:33:26;;;;;;;7.67;2.80;;;13.30;99.90;;;;;;4930138;29;20474;-54
2022/03/19 09:35:53;;;;;;;7.37;2.40;;;13.50;99.90;;;;;;4933973;29;20976;-54
2022/03/19 09:38:19;;;;;;;7.33;2.47;;;13.90;99.90;;;;;;4927569;29;20491;-53
2022/03/19 09:40:46;;;;;;;5.00;2.57;;;14.30;99.90;;;;;;4928194;29;20463;-55
2022/03/19 09:43:13;;;;;;;7.00;2.43;;;14.00;99.90;;;;;;4924305;29;20467;-55
2022/03/19 09:45:40;;;;;;;6.87;2.20;;;14.50;99.90;;;;;;4922662;29;21230;-54
2022/03/19 09:48:08;;;;;;;8.13;2.40;;;13.80;99.90;;;;;;4931210;29;20883;-54
2022/03/19 09:50:35;;;;;;;4.43;2.07;;;14.30;99.90;;;;;;4929140;29;20462;-55
2022/03/19 09:53:05;;;;;;;7.70;2.73;;;13.50;99.90;;;;;;4927889;29;20530;-54
2022/03/19 09:55:33;;;;;;;11.17;3.13;;;13.40;99.90;;;;;;4932317;29;20490;-53
2022/03/19 09:58:00;;;;;;;4.70;2.47;;;14.10;99.90;;;;;;4926950;29;20487;-54
2022/03/19 10:00:27;;;;;;;3.17;1.63;;;13.90;99.90;;;;;;4929088;29;20474;-54
2022/03/19 10:02:57;;;;;;;5.77;2.43;;;14.70;99.90;;;;;;4930881;29;20514;-53
2022/03/19 10:10:59;;;;;;;7.23;3.23;;;14.00;99.90;;;;;;4949229;29;20592;-54
2022/03/19 10:13:27;;;;;;;3.63;1.83;;;14.10;99.90;;;;;;4952914;28;20438;-53
2022/03/19 10:15:54;;;;;;;3.10;1.93;;;13.40;99.90;;;;;;4941021;28;20824;-54
2022/03/19 10:18:27;;;;;;;4.70;2.03;;;14.00;99.90;;;;;;4940144;29;20486;-53
2022/03/19 10:20:56;;;;;;;4.40;2.27;;;13.80;99.90;;;;;;4948336;28;20468;-53
2022/03/19 10:23:34;;;;;;;4.13;2.00;;;12.80;99.90;;;;;;4945206;29;21026;-54
2022/03/19 10:26:01;;;;;;;6.93;2.70;;;12.00;99.90;;;;;;4952389;28;20492;-53
2022/03/19 10:28:32;;;;;;;4.03;2.00;;;12.40;99.90;;;;;;4942851;28;20550;-55
2022/03/19 10:30:59;;;;;;;5.40;2.23;;;12.60;99.90;;;;;;4950376;29;20469;-55
2022/03/19 10:33:28;;;;;;;7.97;2.50;;;13.30;99.90;;;;;;4942542;28;20838;-53
2022/03/19 10:36:07;;;;;;;6.40;2.27;;;13.90;99.90;;;;;;4938702;29;20447;-54
2022/03/19 10:38:42;;;;;;;5.80;2.57;;;14.70;99.90;;;;;;4932495;29;20535;-54
2022/03/19 10:41:09;;;;;;;4.17;2.43;;;14.20;99.90;;;;;;4957615;28;20464;-53
2022/03/19 10:43:36;;;;;;;4.33;1.90;;;14.70;99.90;;;;;;4957860;28;20504;-53
2022/03/19 10:46:04;;;;;;;5.13;2.20;;;15.00;99.90;;;;;;4951016;28;20486;-53
2022/03/19 10:48:31;;;;;;;6.17;2.03;;;14.60;99.90;;;;;;4950378;28;20475;-53
2022/03/19 10:50:59;;;;;;;9.20;2.50;;;13.60;99.90;;;;;;4937834;29;20510;-53
2022/03/19 10:53:27;;;;;;;6.50;2.17;;;12.10;99.90;;;;;;4937647;29;20502;-53
2022/03/19 10:55:55;;;;;;;6.77;2.47;;;12.20;99.90;;;;;;4937915;29;20459;-53
2022/03/19 10:58:22;;;;;;;6.60;2.73;;;11.90;99.90;;;;;;4932626;29;20997;-53
2022/03/19 11:00:51;;;;;;;5.90;2.30;;;11.60;99.90;;;;;;4950684;29;22428;-53
2022/03/19 11:03:20;;;;;;;7.93;3.07;;;11.50;99.90;;;;;;4945602;29;20999;-57
2022/03/19 11:05:49;;;;;;;6.50;3.03;;;11.60;99.90;;;;;;4957045;28;20446;-54
2022/03/19 11:08:19;;;;;;;6.77;2.30;;;12.50;99.90;;;;;;4952205;28;20902;-53
2022/03/19 11:10:49;;;;;;;6.43;2.87;;;12.60;99.90;;;;;;4937854;29;20881;-53
2022/03/19 11:13:20;;;;;;;3.50;3.00;;;12.70;99.90;;;;;;4942304;29;20462;-53
2022/03/19 11:15:50;;;;;;;7.10;2.57;;;13.20;99.90;;;;;;4952972;28;20482;-53
2022/03/19 11:18:20;;;;;;;7.60;3.00;;;13.10;99.90;;;;;;4933343;29;21006;-53
2022/03/19 11:20:49;;;;;;;9.10;2.60;;;13.40;99.90;;;;;;4950062;29;20838;-53
2022/03/19 11:23:19;;;;;;;6.60;3.03;;;13.20;99.90;;;;;;4937389;29;20483;-53
2022/03/19 11:25:53;;;;;;;3.67;2.80;;;12.30;99.90;;;;;;4955696;29;20447;-54
2022/03/19 11:28:20;;;;;;;4.83;2.57;;;12.40;99.90;;;;;;4943904;28;20530;-56
2022/03/19 11:31:00;;;;;;;5.73;2.03;;;12.20;99.90;;;;;;4948098;29;20467;-52
2022/03/19 11:33:30;;;;;;;6.20;2.40;;;11.90;99.90;;;;;;4945125;29;20460;-53
2022/03/19 11:36:06;;;;;;;2.87;2.23;;;11.80;99.90;;;;;;4937982;29;20514;-53
2022/03/19 11:38:34;;;;;;;2.83;1.87;;;11.90;99.90;;;;;;4936411;29;20467;-56
2022/03/19 11:41:17;;;;;;;4.20;2.40;;;12.10;99.90;;;;;;4947078;28;20956;-53
2022/03/19 11:43:44;;;;;;;5.53;2.23;;;12.00;99.90;;;;;;4928489;29;20447;-55
2022/03/19 11:46:12;;;;;;;2.50;2.07;;;12.20;99.90;;;;;;4941300;29;20533;-54
2022/03/19 11:48:47;;;;;;;4.13;2.10;;;11.80;99.90;;;;;;4939675;29;21012;-54
2022/03/19 11:51:17;;;;;;;3.90;2.67;;;11.70;99.90;;;;;;4945941;29;20489;-54
2022/03/19 11:53:54;;;;;;;6.80;2.57;;;11.50;99.90;;;;;;4948237;29;20483;-53
2022/03/19 11:56:23;;;;;;;4.23;2.70;;;11.40;99.90;;;;;;4936559;29;20941;-53
2022/03/19 11:58:50;;;;;;;2.73;2.20;;;11.70;99.90;;;;;;4945885;28;20537;-53
2022/03/19 12:01:17;;;;;;;2.23;1.97;;;12.20;99.90;;;;;;4940403;28;20455;-53
2022/03/19 12:04:12;;;;;;;3.20;2.90;;;12.70;99.90;;;;;;4941645;29;20522;-54
2022/03/19 12:06:39;;;;;;;6.17;2.60;;;13.20;99.90;;;;;;4938302;29;20474;-54
2022/03/19 12:09:07;;;;;;;4.00;2.70;;;13.10;99.90;;;;;;4948496;28;20479;-54
2022/03/19 12:11:36;;;;;;;5.70;2.90;;;13.00;99.90;;;;;;4940290;28;21153;-54
2022/03/19 12:14:09;;;;;;;5.60;2.47;;;13.70;99.90;;;;;;4941547;29;20987;-54
2022/03/19 12:16:41;;;;;;;7.90;3.47;;;13.80;99.90;;;;;;4941291;29;20463;-54
2022/03/19 12:19:08;;;;;;;4.90;2.70;;;13.70;99.90;;;;;;4958454;28;20515;-53
2022/03/19 12:21:36;;;;;;;6.20;2.90;;;14.10;99.90;;;;;;4943121;29;20465;-54
2022/03/19 12:24:23;;;;;;;5.17;2.47;;;14.50;99.90;;;;;;4943292;28;20447;-53
2022/03/19 12:26:51;;;;;;;4.77;2.70;;;14.80;99.90;;;;;;4950185;29;20482;-54
2022/03/19 12:29:20;;;;;;;3.80;2.40;;;14.10;99.90;;;;;;4954675;28;20481;-54
2022/03/19 12:31:48;;;;;;;10.47;3.13;;;13.20;99.90;;;;;;4949179;28;20458;-53
2022/03/19 12:34:17;;;;;;;6.50;3.93;;;12.80;99.90;;;;;;4945707;29;20530;-54
2022/03/19 12:36:44;;;;;;;9.37;3.70;;;13.10;99.90;;;;;;4944803;29;20526;-53
2022/03/19 12:39:11;;;;;;;7.73;3.47;;;13.10;99.90;;;;;;4943736;29;20882;-55
2022/03/19 12:41:40;;;;;;;10.40;3.67;;;13.10;99.90;;;;;;4946601;29;20447;-53
2022/03/19 12:44:18;;;;;;;5.50;4.37;;;12.50;99.90;;;;;;4935330;29;20467;-54
2022/03/19 12:46:45;;;;;;;6.20;4.20;;;12.00;99.90;;;;;;4944198;29;20494;-54
2022/03/19 12:49:14;;;;;;;4.53;3.93;;;12.40;99.90;;;;;;4943311;28;20827;-55
2022/03/19 12:51:45;;;;;;;6.70;5.30;;;12.30;99.90;;;;;;4941816;29;20541;-55
2022/03/19 12:54:19;;;;;;;7.27;4.60;;;12.00;99.90;;;;;;4935735;29;20455;-52
2022/03/19 12:56:46;;;;;;;9.73;5.60;;;12.00;99.90;;;;;;4947341;29;20874;-53
2022/03/19 12:59:20;;;;;;;7.07;5.13;;;11.80;99.90;;;;;;4940646;28;20487;-53
2022/03/19 13:01:47;;;;;;;8.10;5.50;;;11.50;99.90;;;;;;4938618;29;20518;-53
2022/03/19 13:04:20;;;;;;;10.60;6.30;;;11.60;99.90;;;;;;4946928;29;20455;-53
2022/03/19 13:06:47;;;;;;;8.20;7.20;;;12.20;99.90;;;;;;4938001;29;20483;-53
2022/03/19 13:09:14;;;;;;;10.10;7.37;;;12.90;99.90;;;;;;4940758;29;20471;-53
2022/03/19 13:11:42;;;;;;;10.27;8.03;;;13.60;99.90;;;;;;4942393;28;20471;-54